sensor_id;sensor_type;location;lat;lon;timestamp;temperature;humidity
68274;SHT30;55104;47.356;19.448;2023-11-19T00:02:47;-0.99;94.67
68274;SHT30;55104;47.356;19.448;2023-11-19T00:05:50;-0.95;94.17
68274;SHT30;55104;47.356;19.448;2023-11-19T00:08:52;-0.93;94.26
68274;SHT30;55104;47.356;19.448;2023-11-19T00:11:54;-0.99;94.32
68274;SHT30;55104;47.356;19.448;2023-11-19T00:14:57;-1.00;94.06
68274;SHT30;55104;47.356;19.448;2023-11-19T00:17:59;-1.05;94.14
68274;SHT30;55104;47.356;19.448;2023-11-19T00:21:03;-0.97;94.17
68274;SHT30;55104;47.356;19.448;2023-11-19T00:24:05;-0.97;93.97
68274;SHT30;55104;47.356;19.448;2023-11-19T00:27:08;-0.99;94.47
68274;SHT30;55104;47.356;19.448;2023-11-19T00:30:12;-0.96;94.04
68274;SHT30;55104;47.356;19.448;2023-11-19T00:33:15;-0.95;93.57
68274;SHT30;55104;47.356;19.448;2023-11-19T00:36:18;-0.99;94.23
68274;SHT30;55104;47.356;19.448;2023-11-19T00:39:20;-0.95;94.07
68274;SHT30;55104;47.356;19.448;2023-11-19T00:42:23;-0.92;94.02
68274;SHT30;55104;47.356;19.448;2023-11-19T00:45:26;-0.96;94.15
68274;SHT30;55104;47.356;19.448;2023-11-19T00:48:30;-0.96;93.96
68274;SHT30;55104;47.356;19.448;2023-11-19T00:51:33;-0.93;93.94
68274;SHT30;55104;47.356;19.448;2023-11-19T00:54:36;-0.97;93.52
68274;SHT30;55104;47.356;19.448;2023-11-19T00:57:38;-0.99;93.25
68274;SHT30;55104;47.356;19.448;2023-11-19T01:00:40;-1.00;93.69
68274;SHT30;55104;47.356;19.448;2023-11-19T01:03:42;-1.03;93.80
68274;SHT30;55104;47.356;19.448;2023-11-19T01:06:45;-1.02;93.82
68274;SHT30;55104;47.356;19.448;2023-11-19T01:09:51;-1.05;94.43
68274;SHT30;55104;47.356;19.448;2023-11-19T01:12:53;-1.05;94.60
68274;SHT30;55104;47.356;19.448;2023-11-19T01:15:55;-1.03;94.08
68274;SHT30;55104;47.356;19.448;2023-11-19T01:18:58;-1.05;94.28
68274;SHT30;55104;47.356;19.448;2023-11-19T01:22:18;-1.06;94.75
68274;SHT30;55104;47.356;19.448;2023-11-19T01:25:21;-1.07;94.38
68274;SHT30;55104;47.356;19.448;2023-11-19T01:28:23;-1.06;94.50
68274;SHT30;55104;47.356;19.448;2023-11-19T01:31:25;-1.07;93.91
68274;SHT30;55104;47.356;19.448;2023-11-19T01:34:27;-1.13;94.27
68274;SHT30;55104;47.356;19.448;2023-11-19T01:37:29;-1.10;94.18
68274;SHT30;55104;47.356;19.448;2023-11-19T01:40:33;-1.16;94.13
68274;SHT30;55104;47.356;19.448;2023-11-19T01:43:38;-1.20;94.81
68274;SHT30;55104;47.356;19.448;2023-11-19T01:46:42;-1.17;94.32
68274;SHT30;55104;47.356;19.448;2023-11-19T01:49:46;-1.13;94.51
68274;SHT30;55104;47.356;19.448;2023-11-19T01:52:48;-1.15;94.55
68274;SHT30;55104;47.356;19.448;2023-11-19T01:55:51;-1.15;95.46
68274;SHT30;55104;47.356;19.448;2023-11-19T01:58:55;-1.07;95.01
68274;SHT30;55104;47.356;19.448;2023-11-19T02:01:58;-1.03;95.10
68274;SHT30;55104;47.356;19.448;2023-11-19T02:05:03;-0.99;94.98
68274;SHT30;55104;47.356;19.448;2023-11-19T02:08:05;-0.88;94.72
68274;SHT30;55104;47.356;19.448;2023-11-19T02:11:07;-0.86;94.58
68274;SHT30;55104;47.356;19.448;2023-11-19T02:14:10;-0.77;94.62
68274;SHT30;55104;47.356;19.448;2023-11-19T02:17:29;-0.77;94.26
68274;SHT30;55104;47.356;19.448;2023-11-19T02:20:33;-0.69;94.42
68274;SHT30;55104;47.356;19.448;2023-11-19T02:23:35;-0.68;94.19
68274;SHT30;55104;47.356;19.448;2023-11-19T02:30:00;-0.74;93.91
68274;SHT30;55104;47.356;19.448;2023-11-19T02:33:02;-0.72;93.98
68274;SHT30;55104;47.356;19.448;2023-11-19T02:36:08;-0.72;94.14
68274;SHT30;55104;47.356;19.448;2023-11-19T02:39:10;-0.71;94.11
68274;SHT30;55104;47.356;19.448;2023-11-19T02:42:14;-0.68;94.06
68274;SHT30;55104;47.356;19.448;2023-11-19T02:45:16;-0.79;93.91
68274;SHT30;55104;47.356;19.448;2023-11-19T02:48:19;-0.81;94.17
68274;SHT30;55104;47.356;19.448;2023-11-19T02:51:21;-0.84;95.04
68274;SHT30;55104;47.356;19.448;2023-11-19T02:54:23;-0.85;94.84
68274;SHT30;55104;47.356;19.448;2023-11-19T02:57:31;-0.86;94.67
68274;SHT30;55104;47.356;19.448;2023-11-19T03:00:34;-0.82;94.48
68274;SHT30;55104;47.356;19.448;2023-11-19T03:03:39;-0.78;94.43
68274;SHT30;55104;47.356;19.448;2023-11-19T03:06:42;-0.74;94.27
68274;SHT30;55104;47.356;19.448;2023-11-19T03:09:44;-0.74;94.36
68274;SHT30;55104;47.356;19.448;2023-11-19T03:12:46;-0.65;94.23
68274;SHT30;55104;47.356;19.448;2023-11-19T03:15:48;-0.61;94.55
68274;SHT30;55104;47.356;19.448;2023-11-19T03:18:51;-0.57;94.49
68274;SHT30;55104;47.356;19.448;2023-11-19T03:21:54;-0.56;94.48
68274;SHT30;55104;47.356;19.448;2023-11-19T03:24:56;-0.54;94.29
68274;SHT30;55104;47.356;19.448;2023-11-19T03:28:00;-0.51;94.34
68274;SHT30;55104;47.356;19.448;2023-11-19T03:31:05;-0.50;94.17
68274;SHT30;55104;47.356;19.448;2023-11-19T03:34:11;-0.47;94.19
68274;SHT30;55104;47.356;19.448;2023-11-19T03:37:13;-0.49;93.97
68274;SHT30;55104;47.356;19.448;2023-11-19T03:40:19;-0.43;93.85
68274;SHT30;55104;47.356;19.448;2023-11-19T03:43:21;-0.38;93.81
68274;SHT30;55104;47.356;19.448;2023-11-19T03:46:23;-0.38;93.51
68274;SHT30;55104;47.356;19.448;2023-11-19T03:49:26;-0.38;93.67
68274;SHT30;55104;47.356;19.448;2023-11-19T03:52:28;-0.40;93.55
68274;SHT30;55104;47.356;19.448;2023-11-19T03:55:45;-0.40;93.28
68274;SHT30;55104;47.356;19.448;2023-11-19T03:58:47;-0.44;93.15
68274;SHT30;55104;47.356;19.448;2023-11-19T04:01:50;-0.38;93.38
68274;SHT30;55104;47.356;19.448;2023-11-19T04:04:54;-0.41;93.33
68274;SHT30;55104;47.356;19.448;2023-11-19T04:07:57;-0.37;93.44
68274;SHT30;55104;47.356;19.448;2023-11-19T04:11:00;-0.37;93.40
68274;SHT30;55104;47.356;19.448;2023-11-19T04:14:03;-0.33;93.50
68274;SHT30;55104;47.356;19.448;2023-11-19T04:17:05;-0.31;93.69
68274;SHT30;55104;47.356;19.448;2023-11-19T04:20:07;-0.33;93.96
68274;SHT30;55104;47.356;19.448;2023-11-19T04:23:14;-0.30;93.90
68274;SHT30;55104;47.356;19.448;2023-11-19T04:26:16;-0.34;93.63
68274;SHT30;55104;47.356;19.448;2023-11-19T04:29:18;-0.31;93.70
68274;SHT30;55104;47.356;19.448;2023-11-19T04:32:21;-0.36;93.69
68274;SHT30;55104;47.356;19.448;2023-11-19T04:35:23;-0.33;93.83
68274;SHT30;55104;47.356;19.448;2023-11-19T04:38:27;-0.31;93.90
68274;SHT30;55104;47.356;19.448;2023-11-19T04:41:29;-0.36;94.10
68274;SHT30;55104;47.356;19.448;2023-11-19T04:44:32;-0.38;93.96
68274;SHT30;55104;47.356;19.448;2023-11-19T04:47:34;-0.38;93.89
68274;SHT30;55104;47.356;19.448;2023-11-19T04:50:36;-0.44;93.89
68274;SHT30;55104;47.356;19.448;2023-11-19T04:53:39;-0.47;94.01
68274;SHT30;55104;47.356;19.448;2023-11-19T04:56:45;-0.47;94.01
68274;SHT30;55104;47.356;19.448;2023-11-19T04:59:48;-0.47;94.05
68274;SHT30;55104;47.356;19.448;2023-11-19T05:02:50;-0.51;94.63
68274;SHT30;55104;47.356;19.448;2023-11-19T05:05:52;-0.54;94.24
68274;SHT30;55104;47.356;19.448;2023-11-19T05:08:59;-0.57;94.36
68274;SHT30;55104;47.356;19.448;2023-11-19T05:12:11;-0.57;94.18
68274;SHT30;55104;47.356;19.448;2023-11-19T05:15:14;-0.61;93.91
68274;SHT30;55104;47.356;19.448;2023-11-19T05:18:17;-0.58;93.94
68274;SHT30;55104;47.356;19.448;2023-11-19T05:21:20;-0.62;93.82
68274;SHT30;55104;47.356;19.448;2023-11-19T05:24:23;-0.64;93.80
68274;SHT30;55104;47.356;19.448;2023-11-19T05:27:25;-0.58;93.90
68274;SHT30;55104;47.356;19.448;2023-11-19T05:30:28;-0.58;94.21
68274;SHT30;55104;47.356;19.448;2023-11-19T05:33:31;-0.58;94.28
68274;SHT30;55104;47.356;19.448;2023-11-19T05:36:33;-0.57;94.49
68274;SHT30;55104;47.356;19.448;2023-11-19T05:39:35;-0.60;94.43
68274;SHT30;55104;47.356;19.448;2023-11-19T05:42:37;-0.56;94.20
68274;SHT30;55104;47.356;19.448;2023-11-19T05:45:40;-0.58;94.35
68274;SHT30;55104;47.356;19.448;2023-11-19T05:48:42;-0.60;94.37
68274;SHT30;55104;47.356;19.448;2023-11-19T05:51:44;-0.58;94.37
68274;SHT30;55104;47.356;19.448;2023-11-19T05:54:48;-0.57;94.20
68274;SHT30;55104;47.356;19.448;2023-11-19T05:57:53;-0.56;94.39
68274;SHT30;55104;47.356;19.448;2023-11-19T06:00:56;-0.56;94.52
68274;SHT30;55104;47.356;19.448;2023-11-19T06:03:59;-0.51;94.66
68274;SHT30;55104;47.356;19.448;2023-11-19T06:07:02;-0.53;94.46
68274;SHT30;55104;47.356;19.448;2023-11-19T06:10:05;-0.45;94.46
68274;SHT30;55104;47.356;19.448;2023-11-19T06:13:09;-0.47;94.35
68274;SHT30;55104;47.356;19.448;2023-11-19T06:16:13;-0.44;94.31
68274;SHT30;55104;47.356;19.448;2023-11-19T06:19:16;-0.40;94.31
68274;SHT30;55104;47.356;19.448;2023-11-19T06:22:18;-0.38;94.08
68274;SHT30;55104;47.356;19.448;2023-11-19T06:25:20;-0.34;94.14
68274;SHT30;55104;47.356;19.448;2023-11-19T06:28:22;-0.23;94.12
68274;SHT30;55104;47.356;19.448;2023-11-19T06:31:24;-0.20;94.10
68274;SHT30;55104;47.356;19.448;2023-11-19T06:34:27;-0.22;94.02
68274;SHT30;55104;47.356;19.448;2023-11-19T06:37:29;-0.23;94.10
68274;SHT30;55104;47.356;19.448;2023-11-19T06:40:32;-0.13;94.27
68274;SHT30;55104;47.356;19.448;2023-11-19T06:43:36;-0.14;94.34
68274;SHT30;55104;47.356;19.448;2023-11-19T06:46:41;-0.10;94.33
68274;SHT30;55104;47.356;19.448;2023-11-19T06:49:44;-0.03;94.26
68274;SHT30;55104;47.356;19.448;2023-11-19T06:52:47;0.08;94.25
68274;SHT30;55104;47.356;19.448;2023-11-19T06:55:49;0.02;94.25
68274;SHT30;55104;47.356;19.448;2023-11-19T06:58:51;0.09;94.39
68274;SHT30;55104;47.356;19.448;2023-11-19T07:01:53;0.15;94.37
68274;SHT30;55104;47.356;19.448;2023-11-19T07:04:56;0.25;94.39
68274;SHT30;55104;47.356;19.448;2023-11-19T07:07:58;0.36;94.34
68274;SHT30;55104;47.356;19.448;2023-11-19T07:11:02;0.46;94.28
68274;SHT30;55104;47.356;19.448;2023-11-19T07:14:04;0.61;94.31
68274;SHT30;55104;47.356;19.448;2023-11-19T07:17:06;0.71;94.06
68274;SHT30;55104;47.356;19.448;2023-11-19T07:20:09;0.85;93.92
68274;SHT30;55104;47.356;19.448;2023-11-19T07:23:15;1.02;93.49
68274;SHT30;55104;47.356;19.448;2023-11-19T07:26:21;1.26;93.17
68274;SHT30;55104;47.356;19.448;2023-11-19T07:29:24;1.53;92.66
68274;SHT30;55104;47.356;19.448;2023-11-19T07:32:29;1.81;92.18
68274;SHT30;55104;47.356;19.448;2023-11-19T07:35:31;1.98;91.80
68274;SHT30;55104;47.356;19.448;2023-11-19T07:38:34;2.15;90.88
68274;SHT30;55104;47.356;19.448;2023-11-19T07:41:36;2.26;90.63
68274;SHT30;55104;47.356;19.448;2023-11-19T07:44:40;2.39;90.12
68274;SHT30;55104;47.356;19.448;2023-11-19T07:47:44;2.53;90.17
68274;SHT30;55104;47.356;19.448;2023-11-19T07:50:46;2.66;89.33
68274;SHT30;55104;47.356;19.448;2023-11-19T07:53:49;2.77;88.51
68274;SHT30;55104;47.356;19.448;2023-11-19T07:56:51;2.85;88.41
68274;SHT30;55104;47.356;19.448;2023-11-19T07:59:54;2.91;88.50
68274;SHT30;55104;47.356;19.448;2023-11-19T08:02:56;2.97;87.63
68274;SHT30;55104;47.356;19.448;2023-11-19T08:05:59;3.01;88.22
68274;SHT30;55104;47.356;19.448;2023-11-19T08:09:01;3.04;87.66
68274;SHT30;55104;47.356;19.448;2023-11-19T08:12:04;3.07;87.50
68274;SHT30;55104;47.356;19.448;2023-11-19T08:15:07;2.95;87.30
68274;SHT30;55104;47.356;19.448;2023-11-19T08:18:10;3.02;87.89
68274;SHT30;55104;47.356;19.448;2023-11-19T08:21:12;3.04;88.03
68274;SHT30;55104;47.356;19.448;2023-11-19T08:24:15;3.07;87.76
68274;SHT30;55104;47.356;19.448;2023-11-19T08:27:17;3.15;87.99
68274;SHT30;55104;47.356;19.448;2023-11-19T08:30:19;3.21;87.65
68274;SHT30;55104;47.356;19.448;2023-11-19T08:33:21;3.18;87.74
68274;SHT30;55104;47.356;19.448;2023-11-19T08:36:24;3.36;87.91
68274;SHT30;55104;47.356;19.448;2023-11-19T08:39:29;3.38;87.57
68274;SHT30;55104;47.356;19.448;2023-11-19T08:42:32;3.47;87.82
68274;SHT30;55104;47.356;19.448;2023-11-19T08:45:35;3.53;87.73
68274;SHT30;55104;47.356;19.448;2023-11-19T08:48:38;3.63;88.00
68274;SHT30;55104;47.356;19.448;2023-11-19T08:51:41;3.69;88.04
68274;SHT30;55104;47.356;19.448;2023-11-19T08:54:43;3.66;86.80
68274;SHT30;55104;47.356;19.448;2023-11-19T08:57:47;3.69;86.89
68274;SHT30;55104;47.356;19.448;2023-11-19T09:00:49;3.73;86.72
68274;SHT30;55104;47.356;19.448;2023-11-19T09:03:51;3.78;86.40
68274;SHT30;55104;47.356;19.448;2023-11-19T09:06:54;3.85;86.58
68274;SHT30;55104;47.356;19.448;2023-11-19T09:09:57;3.90;86.14
68274;SHT30;55104;47.356;19.448;2023-11-19T09:12:59;3.87;85.94
68274;SHT30;55104;47.356;19.448;2023-11-19T09:16:02;3.77;85.87
68274;SHT30;55104;47.356;19.448;2023-11-19T09:19:05;3.67;85.39
68274;SHT30;55104;47.356;19.448;2023-11-19T09:22:07;3.55;85.57
68274;SHT30;55104;47.356;19.448;2023-11-19T09:25:10;3.59;86.67
68274;SHT30;55104;47.356;19.448;2023-11-19T09:28:12;3.57;87.02
68274;SHT30;55104;47.356;19.448;2023-11-19T09:31:17;3.52;87.02
68274;SHT30;55104;47.356;19.448;2023-11-19T09:34:20;3.52;87.27
68274;SHT30;55104;47.356;19.448;2023-11-19T09:37:22;3.44;87.18
68274;SHT30;55104;47.356;19.448;2023-11-19T09:40:24;3.46;86.79
68274;SHT30;55104;47.356;19.448;2023-11-19T09:43:27;3.56;86.95
68274;SHT30;55104;47.356;19.448;2023-11-19T09:46:31;3.44;87.27
68274;SHT30;55104;47.356;19.448;2023-11-19T09:49:35;3.46;86.99
68274;SHT30;55104;47.356;19.448;2023-11-19T09:52:37;3.47;87.15
68274;SHT30;55104;47.356;19.448;2023-11-19T09:55:40;3.46;87.76
68274;SHT30;55104;47.356;19.448;2023-11-19T09:58:42;3.47;87.51
68274;SHT30;55104;47.356;19.448;2023-11-19T10:01:45;3.52;87.47
68274;SHT30;55104;47.356;19.448;2023-11-19T10:04:49;3.62;87.44
68274;SHT30;55104;47.356;19.448;2023-11-19T10:07:52;3.63;87.67
68274;SHT30;55104;47.356;19.448;2023-11-19T10:10:55;3.64;87.17
68274;SHT30;55104;47.356;19.448;2023-11-19T10:13:58;3.71;87.11
68274;SHT30;55104;47.356;19.448;2023-11-19T10:17:01;3.71;87.47
68274;SHT30;55104;47.356;19.448;2023-11-19T10:20:07;3.81;87.15
68274;SHT30;55104;47.356;19.448;2023-11-19T10:23:12;3.87;86.86
68274;SHT30;55104;47.356;19.448;2023-11-19T10:26:14;3.91;86.60
68274;SHT30;55104;47.356;19.448;2023-11-19T10:29:16;3.93;86.47
68274;SHT30;55104;47.356;19.448;2023-11-19T10:32:18;3.93;86.53
68274;SHT30;55104;47.356;19.448;2023-11-19T10:35:28;3.88;87.12
68274;SHT30;55104;47.356;19.448;2023-11-19T10:38:30;3.91;87.84
68274;SHT30;55104;47.356;19.448;2023-11-19T10:41:33;3.85;88.36
68274;SHT30;55104;47.356;19.448;2023-11-19T10:44:35;3.83;88.15
68274;SHT30;55104;47.356;19.448;2023-11-19T10:47:40;3.81;88.58
68274;SHT30;55104;47.356;19.448;2023-11-19T10:50:45;3.83;88.20
68274;SHT30;55104;47.356;19.448;2023-11-19T10:53:49;3.88;88.85
68274;SHT30;55104;47.356;19.448;2023-11-19T10:56:59;3.90;88.85
68274;SHT30;55104;47.356;19.448;2023-11-19T11:00:03;3.88;88.39
68274;SHT30;55104;47.356;19.448;2023-11-19T11:06:19;3.91;87.99
68274;SHT30;55104;47.356;19.448;2023-11-19T11:09:44;3.97;88.36
68274;SHT30;55104;47.356;19.448;2023-11-19T11:12:48;4.05;88.33
68274;SHT30;55104;47.356;19.448;2023-11-19T11:15:52;4.05;88.09
68274;SHT30;55104;47.356;19.448;2023-11-19T11:18:58;4.02;88.16
68274;SHT30;55104;47.356;19.448;2023-11-19T11:22:00;3.97;88.05
68274;SHT30;55104;47.356;19.448;2023-11-19T11:25:11;4.09;88.12
68274;SHT30;55104;47.356;19.448;2023-11-19T11:28:35;4.08;88.47
68274;SHT30;55104;47.356;19.448;2023-11-19T11:35:30;4.13;87.84
68274;SHT30;55104;47.356;19.448;2023-11-19T11:38:36;4.06;87.60
68274;SHT30;55104;47.356;19.448;2023-11-19T11:41:42;4.16;88.01
68274;SHT30;55104;47.356;19.448;2023-11-19T11:45:06;4.13;88.04
68274;SHT30;55104;47.356;19.448;2023-11-19T11:48:15;4.16;88.09
68274;SHT30;55104;47.356;19.448;2023-11-19T11:51:17;4.16;88.11
68274;SHT30;55104;47.356;19.448;2023-11-19T11:57:22;4.15;88.11
68274;SHT30;55104;47.356;19.448;2023-11-19T12:00:32;4.25;87.91
68274;SHT30;55104;47.356;19.448;2023-11-19T12:03:37;4.32;88.00
68274;SHT30;55104;47.356;19.448;2023-11-19T12:06:40;4.38;87.69
68274;SHT30;55104;47.356;19.448;2023-11-19T12:09:47;4.48;87.59
68274;SHT30;55104;47.356;19.448;2023-11-19T12:12:52;4.45;87.61
68274;SHT30;55104;47.356;19.448;2023-11-19T12:19:03;4.45;87.57
68274;SHT30;55104;47.356;19.448;2023-11-19T12:22:10;4.40;87.72
68274;SHT30;55104;47.356;19.448;2023-11-19T12:25:16;4.49;87.51
68274;SHT30;55104;47.356;19.448;2023-11-19T12:28:19;4.54;87.44
68274;SHT30;55104;47.356;19.448;2023-11-19T12:31:22;4.68;87.47
68274;SHT30;55104;47.356;19.448;2023-11-19T12:34:24;4.80;86.75
68274;SHT30;55104;47.356;19.448;2023-11-19T12:37:27;4.87;86.58
68274;SHT30;55104;47.356;19.448;2023-11-19T12:40:31;4.94;86.00
68274;SHT30;55104;47.356;19.448;2023-11-19T12:43:34;5.01;85.27
68274;SHT30;55104;47.356;19.448;2023-11-19T12:47:01;5.07;84.71
68274;SHT30;55104;47.356;19.448;2023-11-19T12:50:04;5.05;85.27
68274;SHT30;55104;47.356;19.448;2023-11-19T12:53:07;5.09;84.79
68274;SHT30;55104;47.356;19.448;2023-11-19T12:56:10;5.05;83.84
68274;SHT30;55104;47.356;19.448;2023-11-19T12:59:12;5.02;84.70
68274;SHT30;55104;47.356;19.448;2023-11-19T13:02:14;5.01;84.50
68274;SHT30;55104;47.356;19.448;2023-11-19T13:05:27;5.09;84.81
68274;SHT30;55104;47.356;19.448;2023-11-19T13:11:39;5.02;84.22
68274;SHT30;55104;47.356;19.448;2023-11-19T13:14:42;4.99;84.69
68274;SHT30;55104;47.356;19.448;2023-11-19T13:17:47;4.95;84.97
68274;SHT30;55104;47.356;19.448;2023-11-19T13:20:49;5.02;85.17
68274;SHT30;55104;47.356;19.448;2023-11-19T13:23:51;5.01;84.67
68274;SHT30;55104;47.356;19.448;2023-11-19T13:26:53;5.02;84.83
68274;SHT30;55104;47.356;19.448;2023-11-19T13:29:56;5.01;84.28
68274;SHT30;55104;47.356;19.448;2023-11-19T13:32:58;4.99;84.86
68274;SHT30;55104;47.356;19.448;2023-11-19T13:36:01;4.99;85.29
68274;SHT30;55104;47.356;19.448;2023-11-19T13:39:07;4.92;85.04
68274;SHT30;55104;47.356;19.448;2023-11-19T13:42:09;4.99;84.64
68274;SHT30;55104;47.356;19.448;2023-11-19T13:45:15;4.94;85.44
68274;SHT30;55104;47.356;19.448;2023-11-19T13:48:19;4.95;85.68
68274;SHT30;55104;47.356;19.448;2023-11-19T13:51:22;5.01;85.76
68274;SHT30;55104;47.356;19.448;2023-11-19T13:54:24;4.99;85.57
68274;SHT30;55104;47.356;19.448;2023-11-19T13:57:30;5.01;85.11
68274;SHT30;55104;47.356;19.448;2023-11-19T14:00:33;5.07;85.09
68274;SHT30;55104;47.356;19.448;2023-11-19T14:03:35;5.08;85.35
68274;SHT30;55104;47.356;19.448;2023-11-19T14:06:38;5.09;84.93
68274;SHT30;55104;47.356;19.448;2023-11-19T14:09:41;5.05;84.14
68274;SHT30;55104;47.356;19.448;2023-11-19T14:12:44;5.09;83.52
68274;SHT30;55104;47.356;19.448;2023-11-19T14:15:46;5.07;82.91
68274;SHT30;55104;47.356;19.448;2023-11-19T14:18:51;5.09;82.51
68274;SHT30;55104;47.356;19.448;2023-11-19T14:21:53;5.08;82.36
68274;SHT30;55104;47.356;19.448;2023-11-19T14:24:55;5.09;81.83
68274;SHT30;55104;47.356;19.448;2023-11-19T14:27:57;5.07;82.17
68274;SHT30;55104;47.356;19.448;2023-11-19T14:30:59;5.02;82.07
68274;SHT30;55104;47.356;19.448;2023-11-19T14:34:01;4.99;82.29
68274;SHT30;55104;47.356;19.448;2023-11-19T14:37:04;4.99;82.46
68274;SHT30;55104;47.356;19.448;2023-11-19T14:40:06;5.07;82.52
68274;SHT30;55104;47.356;19.448;2023-11-19T14:43:11;5.08;82.28
68274;SHT30;55104;47.356;19.448;2023-11-19T14:46:14;5.02;83.34
68274;SHT30;55104;47.356;19.448;2023-11-19T14:49:17;5.04;82.95
68274;SHT30;55104;47.356;19.448;2023-11-19T14:52:20;5.05;83.29
68274;SHT30;55104;47.356;19.448;2023-11-19T14:55:22;4.99;83.96
68274;SHT30;55104;47.356;19.448;2023-11-19T14:58:24;4.97;83.99
68274;SHT30;55104;47.356;19.448;2023-11-19T15:01:28;4.99;84.28
68274;SHT30;55104;47.356;19.448;2023-11-19T15:04:31;4.94;84.72
68274;SHT30;55104;47.356;19.448;2023-11-19T15:07:33;4.91;85.29
68274;SHT30;55104;47.356;19.448;2023-11-19T15:10:37;4.88;84.99
68274;SHT30;55104;47.356;19.448;2023-11-19T15:13:40;4.81;85.79
68274;SHT30;55104;47.356;19.448;2023-11-19T15:16:48;4.76;86.51
68274;SHT30;55104;47.356;19.448;2023-11-19T15:19:55;4.73;86.84
68274;SHT30;55104;47.356;19.448;2023-11-19T15:22:58;4.73;87.24
68274;SHT30;55104;47.356;19.448;2023-11-19T15:26:00;4.74;87.02
68274;SHT30;55104;47.356;19.448;2023-11-19T15:29:03;4.81;86.70
68274;SHT30;55104;47.356;19.448;2023-11-19T15:32:06;4.76;86.91
68274;SHT30;55104;47.356;19.448;2023-11-19T15:35:11;4.70;87.73
68274;SHT30;55104;47.356;19.448;2023-11-19T15:38:16;4.67;87.84
68274;SHT30;55104;47.356;19.448;2023-11-19T15:41:18;4.63;88.58
68274;SHT30;55104;47.356;19.448;2023-11-19T15:44:22;4.70;88.81
68274;SHT30;55104;47.356;19.448;2023-11-19T15:47:26;4.66;88.84
68274;SHT30;55104;47.356;19.448;2023-11-19T15:50:29;4.67;88.90
68274;SHT30;55104;47.356;19.448;2023-11-19T15:53:31;4.59;89.79
68274;SHT30;55104;47.356;19.448;2023-11-19T15:56:34;4.66;89.76
68274;SHT30;55104;47.356;19.448;2023-11-19T15:59:36;4.60;90.23
68274;SHT30;55104;47.356;19.448;2023-11-19T16:02:38;4.61;90.44
68274;SHT30;55104;47.356;19.448;2023-11-19T16:05:41;4.63;90.75
68274;SHT30;55104;47.356;19.448;2023-11-19T16:08:43;4.57;91.33
68274;SHT30;55104;47.356;19.448;2023-11-19T16:11:46;4.60;91.14
68274;SHT30;55104;47.356;19.448;2023-11-19T16:14:57;4.54;91.22
68274;SHT30;55104;47.356;19.448;2023-11-19T16:18:00;4.52;91.20
68274;SHT30;55104;47.356;19.448;2023-11-19T16:21:02;4.50;91.42
68274;SHT30;55104;47.356;19.448;2023-11-19T16:24:05;4.48;91.33
68274;SHT30;55104;47.356;19.448;2023-11-19T16:27:07;4.49;91.30
68274;SHT30;55104;47.356;19.448;2023-11-19T16:30:29;4.53;90.99
68274;SHT30;55104;47.356;19.448;2023-11-19T16:33:31;4.60;90.79
68274;SHT30;55104;47.356;19.448;2023-11-19T16:36:37;4.59;91.24
68274;SHT30;55104;47.356;19.448;2023-11-19T16:39:40;4.56;91.33
68274;SHT30;55104;47.356;19.448;2023-11-19T16:42:44;4.57;91.67
68274;SHT30;55104;47.356;19.448;2023-11-19T16:45:51;4.59;91.89
68274;SHT30;55104;47.356;19.448;2023-11-19T16:48:53;4.61;92.15
68274;SHT30;55104;47.356;19.448;2023-11-19T16:51:55;4.59;92.11
68274;SHT30;55104;47.356;19.448;2023-11-19T16:54:57;4.57;92.27
68274;SHT30;55104;47.356;19.448;2023-11-19T16:58:00;4.48;92.77
68274;SHT30;55104;47.356;19.448;2023-11-19T17:01:02;4.42;92.82
68274;SHT30;55104;47.356;19.448;2023-11-19T17:04:05;4.45;92.75
68274;SHT30;55104;47.356;19.448;2023-11-19T17:07:07;4.40;93.29
68274;SHT30;55104;47.356;19.448;2023-11-19T17:10:10;4.42;93.19
68274;SHT30;55104;47.356;19.448;2023-11-19T17:13:13;4.43;93.35
68274;SHT30;55104;47.356;19.448;2023-11-19T17:16:16;4.49;93.33
68274;SHT30;55104;47.356;19.448;2023-11-19T17:19:20;4.52;93.35
68274;SHT30;55104;47.356;19.448;2023-11-19T17:22:23;4.53;93.38
68274;SHT30;55104;47.356;19.448;2023-11-19T17:25:25;4.54;93.45
68274;SHT30;55104;47.356;19.448;2023-11-19T17:28:27;4.54;93.40
68274;SHT30;55104;47.356;19.448;2023-11-19T17:31:33;4.50;93.45
68274;SHT30;55104;47.356;19.448;2023-11-19T17:34:36;4.53;94.02
68274;SHT30;55104;47.356;19.448;2023-11-19T17:37:39;4.56;93.93
68274;SHT30;55104;47.356;19.448;2023-11-19T17:40:43;4.54;93.92
68274;SHT30;55104;47.356;19.448;2023-11-19T17:43:45;4.52;94.18
68274;SHT30;55104;47.356;19.448;2023-11-19T17:46:47;4.53;94.02
68274;SHT30;55104;47.356;19.448;2023-11-19T17:49:50;4.49;94.83
68274;SHT30;55104;47.356;19.448;2023-11-19T17:52:52;4.49;94.60
68274;SHT30;55104;47.356;19.448;2023-11-19T17:55:55;4.46;94.95
68274;SHT30;55104;47.356;19.448;2023-11-19T17:58:58;4.45;94.87
68274;SHT30;55104;47.356;19.448;2023-11-19T18:02:00;4.42;95.30
68274;SHT30;55104;47.356;19.448;2023-11-19T18:05:04;4.39;95.08
68274;SHT30;55104;47.356;19.448;2023-11-19T18:08:08;4.39;95.09
68274;SHT30;55104;47.356;19.448;2023-11-19T18:11:13;4.40;95.06
68274;SHT30;55104;47.356;19.448;2023-11-19T18:14:16;4.36;95.18
68274;SHT30;55104;47.356;19.448;2023-11-19T18:17:18;4.36;95.12
68274;SHT30;55104;47.356;19.448;2023-11-19T18:20:21;4.36;95.48
68274;SHT30;55104;47.356;19.448;2023-11-19T18:23:24;4.29;95.55
68274;SHT30;55104;47.356;19.448;2023-11-19T18:26:27;4.30;95.40
68274;SHT30;55104;47.356;19.448;2023-11-19T18:29:32;4.28;95.20
68274;SHT30;55104;47.356;19.448;2023-11-19T18:32:37;4.26;95.29
68274;SHT30;55104;47.356;19.448;2023-11-19T18:35:40;4.26;95.30
68274;SHT30;55104;47.356;19.448;2023-11-19T18:38:42;4.30;95.57
68274;SHT30;55104;47.356;19.448;2023-11-19T18:41:45;4.32;94.89
68274;SHT30;55104;47.356;19.448;2023-11-19T18:44:47;4.30;95.14
68274;SHT30;55104;47.356;19.448;2023-11-19T18:47:49;4.35;95.41
68274;SHT30;55104;47.356;19.448;2023-11-19T18:50:54;4.32;95.51
68274;SHT30;55104;47.356;19.448;2023-11-19T18:53:57;4.35;95.64
68274;SHT30;55104;47.356;19.448;2023-11-19T18:56:59;4.36;95.71
68274;SHT30;55104;47.356;19.448;2023-11-19T19:00:03;4.35;96.04
68274;SHT30;55104;47.356;19.448;2023-11-19T19:03:09;4.38;95.95
68274;SHT30;55104;47.356;19.448;2023-11-19T19:06:15;4.48;95.74
68274;SHT30;55104;47.356;19.448;2023-11-19T19:09:17;4.48;95.21
68274;SHT30;55104;47.356;19.448;2023-11-19T19:12:23;4.49;95.25
68274;SHT30;55104;47.356;19.448;2023-11-19T19:15:25;4.53;95.14
68274;SHT30;55104;47.356;19.448;2023-11-19T19:18:29;4.53;95.41
68274;SHT30;55104;47.356;19.448;2023-11-19T19:21:32;4.57;95.49
68274;SHT30;55104;47.356;19.448;2023-11-19T19:24:34;4.56;95.52
68274;SHT30;55104;47.356;19.448;2023-11-19T19:27:39;4.54;95.55
68274;SHT30;55104;47.356;19.448;2023-11-19T19:30:41;4.66;95.26
68274;SHT30;55104;47.356;19.448;2023-11-19T19:33:44;4.67;95.07